createdAt,value
2023-06-25T00:01:56.233Z,7.50
2023-06-25T00:04:24.995Z,7.50
2023-06-25T00:06:52.533Z,8.25
2023-06-25T00:09:20.040Z,7.65
2023-06-25T00:11:47.761Z,7.40
2023-06-25T00:14:15.207Z,7.40
2023-06-25T00:16:42.674Z,7.87
2023-06-25T00:19:10.392Z,7.20
2023-06-25T00:21:38.488Z,7.68
2023-06-25T00:24:06.221Z,7.15
2023-06-25T00:26:33.964Z,8.45
2023-06-25T00:29:01.420Z,6.95
2023-06-25T00:31:28.954Z,8.10
2023-06-25T00:33:56.702Z,7.62
2023-06-25T00:36:25.483Z,8.30
2023-06-25T00:38:52.970Z,6.95
2023-06-25T00:41:20.846Z,6.78
2023-06-25T00:43:48.351Z,9.52
2023-06-25T00:46:16.574Z,8.15
2023-06-25T00:48:49.214Z,8.15
2023-06-25T00:51:17.690Z,7.60
2023-06-25T00:53:46.185Z,7.93
2023-06-25T00:56:13.806Z,7.53
2023-06-25T00:58:41.751Z,7.07
2023-06-25T01:01:16.970Z,6.93
2023-06-25T01:03:47.565Z,6.53
2023-06-25T01:06:31.297Z,6.97
2023-06-25T01:09:00.597Z,7.18
2023-06-25T01:11:29.593Z,8.60
2023-06-25T01:13:57.487Z,7.53
2023-06-25T01:16:25.063Z,7.12
2023-06-25T01:19:03.890Z,7.65
2023-06-25T01:21:32.684Z,8.10
2023-06-25T01:24:00.588Z,7.40
2023-06-25T01:26:28.219Z,6.78
2023-06-25T01:28:57.787Z,6.95
2023-06-25T01:31:32.176Z,7.55
2023-06-25T01:34:00.199Z,8.13
2023-06-25T01:36:28.079Z,10.48
2023-06-25T01:38:56.205Z,7.22
2023-06-25T01:41:23.831Z,8.40
2023-06-25T01:43:51.574Z,7.62
2023-06-25T01:46:19.071Z,8.77
2023-06-25T01:48:46.547Z,7.45
2023-06-25T01:51:14.360Z,7.78
2023-06-25T01:53:41.845Z,8.05
2023-06-25T01:56:09.326Z,6.90
2023-06-25T01:58:37.073Z,8.82
2023-06-25T02:01:04.558Z,7.45
2023-06-25T02:03:32.375Z,8.90
2023-06-25T02:05:59.866Z,6.57
2023-06-25T02:08:27.442Z,7.28
2023-06-25T02:10:55.342Z,9.02
2023-06-25T02:13:22.862Z,6.82
2023-06-25T02:15:50.420Z,6.95
2023-06-25T02:18:19.655Z,6.97
2023-06-25T02:20:47.225Z,7.43
2023-06-25T02:23:14.770Z,7.50
2023-06-25T02:25:42.696Z,6.50
2023-06-25T02:28:10.292Z,7.45
2023-06-25T02:30:38.771Z,8.10
2023-06-25T02:33:06.602Z,7.22
2023-06-25T02:35:34.303Z,9.77
2023-06-25T02:38:02.086Z,7.07
2023-06-25T02:40:30.063Z,7.53
2023-06-25T02:42:57.807Z,8.10
2023-06-25T02:45:25.284Z,6.85
2023-06-25T02:47:53.180Z,6.25
2023-06-25T02:50:20.719Z,7.25
2023-06-25T02:52:48.661Z,8.20
2023-06-25T02:55:16.412Z,8.57
2023-06-25T02:57:44.236Z,8.30
2023-06-25T03:00:13.117Z,7.95
2023-06-25T03:02:41.518Z,9.68
2023-06-25T03:05:09.346Z,6.97
2023-06-25T03:07:37.468Z,7.72
2023-06-25T03:10:06.440Z,6.62
2023-06-25T03:12:34.137Z,6.97
2023-06-25T03:15:01.613Z,7.62
2023-06-25T03:17:29.545Z,7.12
2023-06-25T03:19:57.979Z,9.13
2023-06-25T03:22:25.771Z,7.60
2023-06-25T03:24:53.780Z,8.60
2023-06-25T03:27:21.650Z,7.97
2023-06-25T03:29:49.256Z,6.68
2023-06-25T03:32:17.071Z,7.18
2023-06-25T03:34:44.568Z,7.87
2023-06-25T03:37:12.049Z,8.13
2023-06-25T03:39:39.784Z,14.02
2023-06-25T03:42:07.830Z,6.65
2023-06-25T03:44:35.284Z,7.12
2023-06-25T03:47:03.176Z,7.87
2023-06-25T03:49:30.638Z,7.45
2023-06-25T03:51:58.141Z,7.37
2023-06-25T03:54:25.891Z,7.55
2023-06-25T03:56:53.366Z,6.55
2023-06-25T03:59:20.851Z,7.00
2023-06-25T04:01:49.837Z,9.77
2023-06-25T04:04:17.640Z,6.60
2023-06-25T04:06:45.157Z,7.90
2023-06-25T04:09:15.391Z,6.55
2023-06-25T04:11:43.305Z,6.70
2023-06-25T04:14:10.803Z,6.60
2023-06-25T04:16:38.361Z,6.70
2023-06-25T04:19:06.138Z,7.70
2023-06-25T04:21:33.814Z,6.87
2023-06-25T04:24:02.067Z,6.40
2023-06-25T04:26:29.944Z,7.00
2023-06-25T04:28:57.447Z,7.35
2023-06-25T04:31:25.180Z,6.62
2023-06-25T04:33:53.312Z,8.63
2023-06-25T04:36:21.311Z,7.90
2023-06-25T04:38:50.391Z,8.48
2023-06-25T04:41:18.113Z,10.25
2023-06-25T04:43:45.809Z,6.97
2023-06-25T04:46:13.492Z,9.18
2023-06-25T04:48:44.875Z,6.97
2023-06-25T04:51:12.621Z,9.40
2023-06-25T04:53:40.426Z,7.97
2023-06-25T04:56:08.454Z,7.87
2023-06-25T04:58:37.070Z,7.43
2023-06-25T05:01:04.720Z,8.68
2023-06-25T05:03:32.537Z,6.55
2023-06-25T05:06:00.150Z,9.23
2023-06-25T05:08:27.632Z,8.48
2023-06-25T05:10:55.383Z,8.07
2023-06-25T05:13:22.859Z,7.85
2023-06-25T05:15:51.528Z,7.55
2023-06-25T05:18:19.246Z,9.10
2023-06-25T05:20:46.701Z,9.45
2023-06-25T05:23:14.182Z,8.25
2023-06-25T05:25:41.932Z,7.55
2023-06-25T05:28:09.547Z,7.68
2023-06-25T05:30:37.634Z,7.18
2023-06-25T05:33:05.425Z,9.93
2023-06-25T05:35:32.992Z,7.18
2023-06-25T05:38:00.513Z,7.30
2023-06-25T05:40:28.373Z,7.40
2023-06-25T05:42:56.408Z,7.65
2023-06-25T05:45:23.908Z,6.95
2023-06-25T05:47:51.787Z,7.75
2023-06-25T05:50:19.318Z,8.05
2023-06-25T05:52:47.315Z,7.12
2023-06-25T05:55:16.301Z,7.15
2023-06-25T05:57:43.743Z,9.77
2023-06-25T06:00:11.638Z,9.32
2023-06-25T06:02:40.769Z,7.10
2023-06-25T06:05:08.643Z,9.20
2023-06-25T06:07:36.194Z,7.12
2023-06-25T06:10:03.724Z,7.03
2023-06-25T06:12:31.536Z,6.53
2023-06-25T06:14:59.065Z,6.55
2023-06-25T06:17:26.589Z,6.80
2023-06-25T06:19:55.665Z,7.28
2023-06-25T06:22:23.284Z,8.13
2023-06-25T06:24:50.752Z,8.40
2023-06-25T06:27:19.013Z,7.82
2023-06-25T06:29:46.521Z,6.20
2023-06-25T06:32:14.003Z,6.22
2023-06-25T06:34:42.746Z,7.50
2023-06-25T06:37:10.195Z,5.30
2023-06-25T06:39:37.634Z,6.10
2023-06-25T06:42:05.962Z,5.60
2023-06-25T06:44:33.437Z,8.73
2023-06-25T06:47:00.932Z,5.87
2023-06-25T06:49:28.793Z,5.75
2023-06-25T06:51:56.245Z,5.55
2023-06-25T06:54:23.695Z,5.82
2023-06-25T06:56:51.547Z,5.00
2023-06-25T06:59:18.993Z,6.03
2023-06-25T07:01:46.491Z,6.22
2023-06-25T07:04:17.173Z,4.47
2023-06-25T07:06:44.890Z,5.22
2023-06-25T07:09:12.422Z,7.45
2023-06-25T07:11:40.236Z,4.68
2023-06-25T07:14:08.911Z,5.15
2023-06-25T07:16:36.650Z,4.80
2023-06-25T07:19:04.416Z,4.60
2023-06-25T07:21:31.885Z,5.28
2023-06-25T07:23:59.366Z,5.47
2023-06-25T07:26:27.216Z,6.60
2023-06-25T07:28:54.698Z,4.12
2023-06-25T07:31:22.157Z,4.82
2023-06-25T07:33:49.948Z,5.65
2023-06-25T07:36:17.896Z,4.87
2023-06-25T07:38:45.379Z,7.85
2023-06-25T07:41:13.169Z,4.68
2023-06-25T07:43:40.656Z,4.87
2023-06-25T07:46:08.312Z,5.12
2023-06-25T07:48:36.118Z,6.53
2023-06-25T07:51:04.914Z,6.15
2023-06-25T07:53:32.402Z,7.55
2023-06-25T07:56:03.454Z,8.40
2023-06-25T07:58:31.816Z,6.47
2023-06-25T08:00:59.468Z,8.55
2023-06-25T08:03:27.286Z,7.90
2023-06-25T08:05:54.992Z,6.90
2023-06-25T08:08:22.476Z,9.98
2023-06-25T08:10:52.962Z,10.98
2023-06-25T08:13:21.192Z,8.57
2023-06-25T08:15:48.758Z,11.20
2023-06-25T08:18:16.466Z,9.85
2023-06-25T08:20:44.227Z,8.55
2023-06-25T08:23:11.732Z,7.95
2023-06-25T08:25:39.832Z,8.48
2023-06-25T08:28:07.597Z,9.35
2023-06-25T08:30:35.119Z,8.27
2023-06-25T08:33:02.872Z,7.50
2023-06-25T08:35:31.397Z,9.20
2023-06-25T08:37:58.846Z,11.90
2023-06-25T08:40:27.368Z,6.70
2023-06-25T08:42:54.894Z,6.12
2023-06-25T08:45:22.389Z,7.90
2023-06-25T08:48:00.677Z,7.03
2023-06-25T08:50:28.188Z,7.15
2023-06-25T08:52:57.069Z,9.52
2023-06-25T08:55:25.772Z,10.55
2023-06-25T08:57:53.214Z,15.05
2023-06-25T09:00:21.133Z,17.37
2023-06-25T09:02:48.768Z,16.90
2023-06-25T09:05:23.910Z,10.90
2023-06-25T09:07:51.789Z,12.98
2023-06-25T09:10:22.379Z,9.55
2023-06-25T09:12:50.574Z,11.48
2023-06-25T09:15:25.242Z,9.00
2023-06-25T09:17:56.792Z,6.37
2023-06-25T09:20:25.851Z,5.72
2023-06-25T09:22:55.339Z,5.72
2023-06-25T09:25:27.874Z,6.35
2023-06-25T09:27:56.471Z,5.00
2023-06-25T09:30:24.109Z,8.35
2023-06-25T09:32:55.938Z,5.43
2023-06-25T09:35:24.543Z,5.62
2023-06-25T09:37:52.579Z,5.25
2023-06-25T09:40:20.361Z,5.18
2023-06-25T09:42:53.621Z,4.45
2023-06-25T09:45:21.866Z,5.37
2023-06-25T09:47:50.415Z,4.53
2023-06-25T09:50:19.804Z,6.28
2023-06-25T09:52:55.631Z,4.47
2023-06-25T09:55:24.071Z,4.32
2023-06-25T09:57:51.770Z,4.60
2023-06-25T10:00:20.468Z,3.90
2023-06-25T10:02:48.807Z,5.07
2023-06-25T10:05:16.587Z,3.10
2023-06-25T10:07:44.481Z,5.10
2023-06-25T10:10:27.189Z,4.97
2023-06-25T10:12:54.711Z,3.65
2023-06-25T10:15:32.701Z,4.32
2023-06-25T10:18:01.248Z,4.12
2023-06-25T10:20:34.075Z,3.90
2023-06-25T10:23:12.180Z,4.90
2023-06-25T10:25:41.737Z,5.53
2023-06-25T10:28:13.344Z,3.85
2023-06-25T10:30:51.291Z,3.55
2023-06-25T10:33:18.944Z,3.10
2023-06-25T10:35:55.921Z,3.50
2023-06-25T10:38:24.020Z,3.58
2023-06-25T10:40:51.786Z,3.45
2023-06-25T10:43:19.699Z,3.60
2023-06-25T10:45:51.060Z,3.97
2023-06-25T10:48:18.835Z,4.50
2023-06-25T10:50:46.550Z,3.22
2023-06-25T10:53:18.211Z,4.12
2023-06-25T10:55:53.309Z,2.95
2023-06-25T10:58:22.051Z,4.30
2023-06-25T11:00:57.043Z,4.07
2023-06-25T11:03:25.010Z,4.40
2023-06-25T11:05:52.940Z,3.67
2023-06-25T11:08:24.648Z,4.32
2023-06-25T11:10:52.132Z,3.70
2023-06-25T11:13:19.852Z,4.93
2023-06-25T11:15:47.303Z,4.12
2023-06-25T11:18:14.916Z,5.15
2023-06-25T11:20:43.612Z,5.00
2023-06-25T11:23:15.154Z,3.78
2023-06-25T11:25:43.574Z,3.28
2023-06-25T11:28:15.157Z,3.60
2023-06-25T11:30:44.651Z,3.75
2023-06-25T11:33:13.623Z,4.45
2023-06-25T11:35:41.773Z,4.10
2023-06-25T11:38:10.177Z,4.20
2023-06-25T11:40:39.481Z,3.80
2023-06-25T11:43:11.949Z,4.68
2023-06-25T11:45:43.467Z,4.62
2023-06-25T11:48:14.902Z,3.55
2023-06-25T11:50:46.030Z,3.97
2023-06-25T11:53:13.657Z,3.72
2023-06-25T11:55:41.600Z,4.10
2023-06-25T11:58:10.261Z,4.78
2023-06-25T12:00:38.172Z,3.25
2023-06-25T12:03:05.996Z,4.60
2023-06-25T12:05:35.172Z,7.20
2023-06-25T12:08:02.847Z,6.07
2023-06-25T12:10:30.577Z,5.32
2023-06-25T12:12:58.049Z,6.82
2023-06-25T12:15:25.518Z,5.10
2023-06-25T12:17:53.373Z,5.03
2023-06-25T12:20:20.849Z,5.22
2023-06-25T12:22:48.311Z,4.78
2023-06-25T12:25:16.044Z,3.95
2023-06-25T12:27:45.843Z,4.40
2023-06-25T12:30:15.304Z,4.68
2023-06-25T12:32:43.370Z,4.90
2023-06-25T12:35:11.375Z,3.92
2023-06-25T12:37:38.881Z,5.03
2023-06-25T12:40:07.247Z,5.43
2023-06-25T12:42:34.717Z,5.72
2023-06-25T12:45:02.503Z,3.67
2023-06-25T12:47:30.926Z,4.37
2023-06-25T12:49:58.427Z,5.75
2023-06-25T12:52:25.921Z,5.55
2023-06-25T12:54:53.649Z,5.12
2023-06-25T12:57:22.181Z,4.82
2023-06-25T12:59:50.817Z,4.57
2023-06-25T13:02:18.559Z,4.95
2023-06-25T13:04:46.074Z,4.60
2023-06-25T13:07:13.601Z,4.80
2023-06-25T13:09:43.997Z,5.75
2023-06-25T13:12:12.477Z,3.53
2023-06-25T13:14:40.198Z,4.03
2023-06-25T13:17:08.200Z,3.75
2023-06-25T13:19:42.985Z,5.78
2023-06-25T13:22:10.742Z,4.12
2023-06-25T13:24:38.249Z,4.25
2023-06-25T13:27:05.748Z,4.70
2023-06-25T13:29:33.493Z,3.70
2023-06-25T13:32:01.028Z,6.45
2023-06-25T13:34:28.509Z,5.57
2023-06-25T13:36:56.608Z,5.22
2023-06-25T13:39:24.181Z,6.05
2023-06-25T13:41:52.145Z,4.30
2023-06-25T13:44:20.008Z,5.28
2023-06-25T13:46:47.536Z,5.62
2023-06-25T13:49:15.181Z,3.47
2023-06-25T13:51:42.925Z,3.62
2023-06-25T13:54:10.409Z,6.47
2023-06-25T13:56:38.129Z,4.32
2023-06-25T13:59:05.893Z,3.83
2023-06-25T14:01:33.584Z,4.28
2023-06-25T14:04:01.431Z,3.67
2023-06-25T14:06:28.978Z,6.05
2023-06-25T14:08:56.598Z,3.45
2023-06-25T14:11:24.302Z,4.03
2023-06-25T14:13:53.521Z,2.95
2023-06-25T14:16:23.914Z,4.82
2023-06-25T14:18:52.533Z,4.78
2023-06-25T14:21:20.305Z,3.53
2023-06-25T14:23:48.963Z,4.95
2023-06-25T14:26:16.700Z,4.43
2023-06-25T14:28:44.278Z,3.62
2023-06-25T14:31:12.313Z,4.32
2023-06-25T14:33:40.526Z,3.83
2023-06-25T14:36:08.051Z,4.20
2023-06-25T14:38:35.616Z,4.45
2023-06-25T14:41:03.468Z,4.05
2023-06-25T14:43:30.951Z,3.95
2023-06-25T14:45:58.429Z,3.90
2023-06-25T14:48:26.199Z,4.03
2023-06-25T14:50:53.750Z,5.30
2023-06-25T14:53:21.199Z,3.97
2023-06-25T14:55:48.973Z,5.28
2023-06-25T14:58:16.568Z,3.83
2023-06-25T15:00:44.058Z,4.65
2023-06-25T15:03:11.848Z,4.57
2023-06-25T15:05:39.855Z,7.03
2023-06-25T15:08:09.273Z,3.75
2023-06-25T15:10:37.039Z,3.95
2023-06-25T15:13:04.759Z,4.78
2023-06-25T15:15:32.213Z,3.83
2023-06-25T15:18:00.053Z,4.85
2023-06-25T15:20:30.085Z,3.33
2023-06-25T15:22:57.540Z,6.05
2023-06-25T15:25:25.267Z,4.05
2023-06-25T15:27:52.720Z,4.25
2023-06-25T15:30:20.378Z,4.05
2023-06-25T15:32:48.106Z,5.25
2023-06-25T15:35:15.602Z,4.12
2023-06-25T15:37:43.070Z,3.42
2023-06-25T15:40:11.402Z,4.60
2023-06-25T15:42:39.486Z,3.65
2023-06-25T15:45:08.260Z,4.18
2023-06-25T15:47:36.067Z,3.67
2023-06-25T15:50:03.816Z,6.15
2023-06-25T15:52:31.263Z,4.25
2023-06-25T15:54:58.966Z,4.10
2023-06-25T15:57:26.429Z,4.70
2023-06-25T15:59:53.897Z,4.55
2023-06-25T16:02:21.977Z,3.87
2023-06-25T16:04:49.862Z,3.95
2023-06-25T16:07:17.335Z,4.18
2023-06-25T16:09:44.838Z,4.05
2023-06-25T16:12:12.675Z,4.62
2023-06-25T16:14:40.159Z,5.22
2023-06-25T16:17:07.604Z,4.97
2023-06-25T16:22:05.699Z,5.35
2023-06-25T16:24:33.181Z,3.87
2023-06-25T16:27:00.916Z,4.85
2023-06-25T16:29:28.394Z,3.83
2023-06-25T16:31:55.887Z,4.30
2023-06-25T16:34:23.703Z,5.90
2023-06-25T16:36:51.163Z,3.45
2023-06-25T16:39:18.631Z,5.25
2023-06-25T16:41:46.387Z,5.47
2023-06-25T16:44:13.866Z,5.05
2023-06-25T16:46:41.532Z,5.20
2023-06-25T16:49:09.292Z,4.45
2023-06-25T16:51:36.749Z,5.05
2023-06-25T16:54:07.202Z,5.18
2023-06-25T16:56:35.225Z,5.15
2023-06-25T16:59:03.093Z,4.82
2023-06-25T17:01:30.608Z,4.40
2023-06-25T17:03:58.439Z,4.40
2023-06-25T17:06:26.008Z,6.95
2023-06-25T17:08:53.774Z,4.62
2023-06-25T17:11:22.560Z,4.47
2023-06-25T17:13:50.304Z,4.75
2023-06-25T17:16:17.795Z,4.28
2023-06-25T17:18:45.571Z,4.72
2023-06-25T17:21:13.659Z,5.05
2023-06-25T17:23:42.151Z,6.20
2023-06-25T17:26:09.965Z,4.28
2023-06-25T17:28:37.916Z,4.07
2023-06-25T17:31:05.508Z,5.18
2023-06-25T17:33:33.335Z,6.53
2023-06-25T17:36:00.765Z,4.00
2023-06-25T17:38:28.264Z,5.25
2023-06-25T17:40:56.059Z,4.18
2023-06-25T17:43:24.213Z,5.18
2023-06-25T17:45:53.090Z,5.40
2023-06-25T17:48:20.955Z,4.78
2023-06-25T17:50:48.432Z,5.15
2023-06-25T17:53:17.969Z,6.28
2023-06-25T17:55:47.252Z,5.12
2023-06-25T17:58:14.824Z,4.22
2023-06-25T18:00:43.935Z,6.50
2023-06-25T18:03:12.001Z,5.70
2023-06-25T18:05:40.311Z,5.00
2023-06-25T18:08:07.804Z,5.25
2023-06-25T18:10:35.579Z,5.32
2023-06-25T18:13:04.038Z,7.05
2023-06-25T18:15:39.996Z,5.65
2023-06-25T18:18:09.832Z,5.12
2023-06-25T18:20:37.455Z,4.30
2023-06-25T18:23:05.218Z,5.25
2023-06-25T18:25:33.008Z,5.35
2023-06-25T18:28:00.450Z,5.80
2023-06-25T18:30:28.028Z,4.55
2023-06-25T18:32:56.500Z,6.25
2023-06-25T18:35:24.292Z,5.47
2023-06-25T18:37:51.933Z,5.30
2023-06-25T18:40:19.661Z,7.22
2023-06-25T18:42:47.347Z,6.37
2023-06-25T18:45:15.600Z,6.85
2023-06-25T18:47:44.233Z,7.75
2023-06-25T18:50:13.382Z,6.03
2023-06-25T18:52:41.423Z,8.70
2023-06-25T18:55:11.144Z,7.70
2023-06-25T18:57:39.186Z,6.15
2023-06-25T19:00:08.490Z,6.85
2023-06-25T19:02:36.826Z,6.80
2023-06-25T19:05:04.981Z,6.90
2023-06-25T19:07:33.300Z,5.95
2023-06-25T19:10:01.128Z,6.57
2023-06-25T19:12:29.193Z,5.95
2023-06-25T19:14:57.806Z,6.43
2023-06-25T19:17:26.925Z,6.87
2023-06-25T19:19:54.558Z,6.55
2023-06-25T19:22:22.347Z,9.82
2023-06-25T19:24:51.135Z,6.62
2023-06-25T19:27:19.718Z,5.15
2023-06-25T19:29:47.579Z,6.43
2023-06-25T19:32:18.114Z,6.90
2023-06-25T19:34:49.298Z,6.47
2023-06-25T19:37:17.813Z,8.10
2023-06-25T19:39:46.089Z,5.50
2023-06-25T19:42:14.234Z,5.50
2023-06-25T19:44:43.026Z,4.90
2023-06-25T19:47:11.085Z,5.43
2023-06-25T19:49:39.000Z,5.80
2023-06-25T19:52:07.586Z,6.43
2023-06-25T19:54:35.847Z,4.78
2023-06-25T19:57:06.274Z,5.57
2023-06-25T19:59:34.561Z,6.82
2023-06-25T20:02:02.195Z,5.55
2023-06-25T20:04:30.575Z,4.70
2023-06-25T20:06:59.296Z,5.85
2023-06-25T20:09:27.518Z,7.85
2023-06-25T20:11:55.324Z,6.00
2023-06-25T20:14:23.138Z,5.82
2023-06-25T20:16:50.814Z,5.95
2023-06-25T20:19:19.082Z,5.70
2023-06-25T20:21:47.041Z,5.20
2023-06-25T20:24:15.082Z,5.93
2023-06-25T20:26:43.651Z,5.65
2023-06-25T20:29:11.727Z,5.75
2023-06-25T20:31:39.817Z,5.40
2023-06-25T20:34:08.177Z,4.68
2023-06-25T20:36:35.972Z,7.60
2023-06-25T20:39:04.067Z,6.20
2023-06-25T20:41:34.023Z,5.00
2023-06-25T20:44:02.377Z,4.47
2023-06-25T20:46:30.873Z,5.80
2023-06-25T20:48:58.673Z,4.50
2023-06-25T20:51:26.545Z,4.82
2023-06-25T20:53:54.168Z,4.80
2023-06-25T20:56:22.133Z,6.25
2023-06-25T20:58:49.722Z,5.35
2023-06-25T21:01:17.227Z,4.60
2023-06-25T21:03:45.177Z,4.90
2023-06-25T21:06:12.771Z,4.70
2023-06-25T21:08:40.622Z,5.75
2023-06-25T21:11:08.353Z,4.80
2023-06-25T21:13:35.813Z,4.82
2023-06-25T21:16:03.356Z,5.65
2023-06-25T21:18:31.108Z,5.60
2023-06-25T21:21:00.274Z,6.45
2023-06-25T21:23:28.033Z,5.57
2023-06-25T21:25:55.781Z,5.55
2023-06-25T21:28:23.263Z,5.70
2023-06-25T21:30:52.424Z,5.03
2023-06-25T21:33:20.345Z,5.20
2023-06-25T21:35:47.837Z,5.43
2023-06-25T21:38:15.336Z,5.20
2023-06-25T21:40:43.042Z,5.90
2023-06-25T21:43:10.466Z,6.35
2023-06-25T21:45:38.620Z,5.57
2023-06-25T21:48:06.391Z,7.80
2023-06-25T21:50:33.988Z,5.57
2023-06-25T21:53:01.411Z,6.00
2023-06-25T21:55:29.148Z,5.57
2023-06-25T21:57:56.637Z,5.28
2023-06-25T22:00:24.132Z,5.85
2023-06-25T22:02:51.814Z,5.20
2023-06-25T22:05:21.051Z,6.70
2023-06-25T22:07:48.647Z,4.93
2023-06-25T22:10:16.117Z,7.35
2023-06-25T22:12:43.904Z,5.85
2023-06-25T22:15:11.361Z,6.05
2023-06-25T22:17:38.970Z,5.68
2023-06-25T22:20:07.484Z,6.80
2023-06-25T22:22:34.979Z,6.05
2023-06-25T22:25:02.430Z,6.80
2023-06-25T22:27:36.884Z,6.32
2023-06-25T22:30:11.012Z,6.40
2023-06-25T22:32:38.952Z,8.52
2023-06-25T22:35:06.599Z,6.85
2023-06-25T22:37:34.026Z,6.70
2023-06-25T22:40:01.936Z,7.53
2023-06-25T22:42:29.521Z,8.90
2023-06-25T22:44:56.999Z,8.35
2023-06-25T22:47:24.775Z,8.27
2023-06-25T22:49:52.229Z,8.40
2023-06-25T22:52:19.795Z,7.50
2023-06-25T22:54:47.531Z,8.07
2023-06-25T22:57:14.968Z,7.32
2023-06-25T22:59:42.446Z,7.47
2023-06-25T23:02:10.261Z,8.73
2023-06-25T23:04:37.839Z,9.00
2023-06-25T23:07:05.340Z,8.15
2023-06-25T23:09:34.615Z,8.50
2023-06-25T23:12:02.096Z,7.67
2023-06-25T23:14:29.565Z,9.07
2023-06-25T23:16:58.494Z,8.50
2023-06-25T23:19:25.964Z,9.40
2023-06-25T23:21:53.625Z,8.45
2023-06-25T23:24:21.590Z,9.30
2023-06-25T23:26:49.723Z,8.38
2023-06-25T23:29:18.219Z,8.30
2023-06-25T23:31:46.801Z,8.02
2023-06-25T23:34:14.605Z,7.93
2023-06-25T23:36:42.074Z,9.45
2023-06-25T23:39:09.835Z,8.43
2023-06-25T23:41:40.274Z,8.85
2023-06-25T23:44:14.788Z,9.80
2023-06-25T23:46:42.427Z,8.55
2023-06-25T23:49:11.077Z,10.57
2023-06-25T23:51:38.823Z,8.47
2023-06-25T23:54:06.409Z,8.38
2023-06-25T23:56:34.955Z,8.40
2023-06-25T23:59:05.495Z,9.02
